sensor_id;sensor_type;location;lat;lon;timestamp;P1;durP1;ratioP1;P2;durP2;ratioP2
10313;SDS011;5202;49.138;10.090;2022-11-30T00:01:35;11.23;;;7.90;;
10313;SDS011;5202;49.138;10.090;2022-11-30T00:04:03;13.67;;;8.43;;
10313;SDS011;5202;49.138;10.090;2022-11-30T00:06:32;13.97;;;8.07;;
10313;SDS011;5202;49.138;10.090;2022-11-30T00:09:00;15.47;;;8.27;;
10313;SDS011;5202;49.138;10.090;2022-11-30T00:11:28;17.13;;;8.73;;
10313;SDS011;5202;49.138;10.090;2022-11-30T00:13:59;14.33;;;8.57;;
10313;SDS011;5202;49.138;10.090;2022-11-30T00:16:27;12.93;;;8.73;;
10313;SDS011;5202;49.138;10.090;2022-11-30T00:18:56;13.67;;;7.77;;
10313;SDS011;5202;49.138;10.090;2022-11-30T00:21:24;16.63;;;8.73;;
10313;SDS011;5202;49.138;10.090;2022-11-30T00:23:52;15.90;;;8.47;;
10313;SDS011;5202;49.138;10.090;2022-11-30T00:26:21;13.57;;;8.30;;
10313;SDS011;5202;49.138;10.090;2022-11-30T00:28:49;18.10;;;8.87;;
10313;SDS011;5202;49.138;10.090;2022-11-30T00:31:19;14.13;;;8.63;;
10313;SDS011;5202;49.138;10.090;2022-11-30T00:33:47;15.07;;;8.63;;
10313;SDS011;5202;49.138;10.090;2022-11-30T00:36:16;15.17;;;8.43;;
10313;SDS011;5202;49.138;10.090;2022-11-30T00:38:48;12.97;;;8.63;;
10313;SDS011;5202;49.138;10.090;2022-11-30T00:41:18;13.60;;;7.73;;
10313;SDS011;5202;49.138;10.090;2022-11-30T00:43:47;13.43;;;8.67;;
10313;SDS011;5202;49.138;10.090;2022-11-30T00:46:15;14.67;;;9.20;;
10313;SDS011;5202;49.138;10.090;2022-11-30T00:48:45;14.17;;;8.43;;
10313;SDS011;5202;49.138;10.090;2022-11-30T00:51:13;14.67;;;8.50;;
10313;SDS011;5202;49.138;10.090;2022-11-30T00:53:42;15.53;;;8.63;;
10313;SDS011;5202;49.138;10.090;2022-11-30T00:56:13;14.20;;;8.30;;
10313;SDS011;5202;49.138;10.090;2022-11-30T00:58:41;14.23;;;8.80;;
10313;SDS011;5202;49.138;10.090;2022-11-30T01:01:10;12.17;;;8.20;;
10313;SDS011;5202;49.138;10.090;2022-11-30T01:03:39;14.63;;;8.07;;
10313;SDS011;5202;49.138;10.090;2022-11-30T01:06:13;13.07;;;8.50;;
10313;SDS011;5202;49.138;10.090;2022-11-30T01:08:41;16.83;;;9.57;;
10313;SDS011;5202;49.138;10.090;2022-11-30T01:11:11;15.33;;;8.90;;
10313;SDS011;5202;49.138;10.090;2022-11-30T01:13:42;13.03;;;8.53;;
10313;SDS011;5202;49.138;10.090;2022-11-30T01:16:11;15.10;;;9.73;;
10313;SDS011;5202;49.138;10.090;2022-11-30T01:18:43;14.07;;;8.73;;
10313;SDS011;5202;49.138;10.090;2022-11-30T01:21:14;14.50;;;8.97;;
10313;SDS011;5202;49.138;10.090;2022-11-30T01:23:45;15.53;;;9.47;;
10313;SDS011;5202;49.138;10.090;2022-11-30T01:26:14;15.43;;;9.87;;
10313;SDS011;5202;49.138;10.090;2022-11-30T01:28:43;18.73;;;10.10;;
10313;SDS011;5202;49.138;10.090;2022-11-30T01:31:16;16.07;;;9.60;;
10313;SDS011;5202;49.138;10.090;2022-11-30T01:33:47;15.63;;;9.57;;
10313;SDS011;5202;49.138;10.090;2022-11-30T01:36:18;16.63;;;10.40;;
10313;SDS011;5202;49.138;10.090;2022-11-30T01:38:49;19.10;;;11.57;;
10313;SDS011;5202;49.138;10.090;2022-11-30T01:41:22;16.97;;;11.07;;
10313;SDS011;5202;49.138;10.090;2022-11-30T01:43:54;18.23;;;12.23;;
10313;SDS011;5202;49.138;10.090;2022-11-30T01:46:32;17.67;;;11.87;;
10313;SDS011;5202;49.138;10.090;2022-11-30T01:49:04;20.27;;;11.53;;
10313;SDS011;5202;49.138;10.090;2022-11-30T01:51:43;18.47;;;12.10;;
10313;SDS011;5202;49.138;10.090;2022-11-30T01:54:16;18.47;;;11.90;;
10313;SDS011;5202;49.138;10.090;2022-11-30T01:56:49;22.27;;;13.33;;
10313;SDS011;5202;49.138;10.090;2022-11-30T01:59:22;19.83;;;12.80;;
10313;SDS011;5202;49.138;10.090;2022-11-30T02:01:52;19.60;;;11.90;;
10313;SDS011;5202;49.138;10.090;2022-11-30T02:04:23;18.83;;;12.83;;
10313;SDS011;5202;49.138;10.090;2022-11-30T02:06:57;17.63;;;12.33;;
10313;SDS011;5202;49.138;10.090;2022-11-30T02:09:26;18.47;;;12.53;;
10313;SDS011;5202;49.138;10.090;2022-11-30T02:11:56;20.73;;;12.57;;
10313;SDS011;5202;49.138;10.090;2022-11-30T02:14:28;19.50;;;13.53;;
10313;SDS011;5202;49.138;10.090;2022-11-30T02:17:05;18.20;;;12.53;;
10313;SDS011;5202;49.138;10.090;2022-11-30T02:23:10;17.70;;;12.13;;
10313;SDS011;5202;49.138;10.090;2022-11-30T02:26:21;18.70;;;12.20;;
10313;SDS011;5202;49.138;10.090;2022-11-30T02:29:17;21.80;;;13.20;;
10313;SDS011;5202;49.138;10.090;2022-11-30T02:31:49;18.93;;;12.67;;
10313;SDS011;5202;49.138;10.090;2022-11-30T02:34:24;20.93;;;13.63;;
10313;SDS011;5202;49.138;10.090;2022-11-30T02:36:57;21.07;;;12.57;;
10313;SDS011;5202;49.138;10.090;2022-11-30T02:39:27;20.67;;;12.93;;
10313;SDS011;5202;49.138;10.090;2022-11-30T02:41:55;21.23;;;13.27;;
10313;SDS011;5202;49.138;10.090;2022-11-30T02:44:25;20.60;;;13.33;;
10313;SDS011;5202;49.138;10.090;2022-11-30T02:47:04;20.90;;;13.00;;
10313;SDS011;5202;49.138;10.090;2022-11-30T02:49:43;21.37;;;13.50;;
10313;SDS011;5202;49.138;10.090;2022-11-30T02:52:18;19.73;;;13.67;;
10313;SDS011;5202;49.138;10.090;2022-11-30T02:54:51;20.13;;;12.67;;
10313;SDS011;5202;49.138;10.090;2022-11-30T02:57:20;20.13;;;13.20;;
10313;SDS011;5202;49.138;10.090;2022-11-30T02:59:49;21.77;;;13.03;;
10313;SDS011;5202;49.138;10.090;2022-11-30T03:02:18;22.73;;;13.50;;
10313;SDS011;5202;49.138;10.090;2022-11-30T03:04:46;20.60;;;12.80;;
10313;SDS011;5202;49.138;10.090;2022-11-30T03:07:15;21.90;;;13.03;;
10313;SDS011;5202;49.138;10.090;2022-11-30T03:09:44;22.23;;;13.07;;
10313;SDS011;5202;49.138;10.090;2022-11-30T03:12:12;18.80;;;12.57;;
10313;SDS011;5202;49.138;10.090;2022-11-30T03:14:40;20.20;;;13.17;;
10313;SDS011;5202;49.138;10.090;2022-11-30T03:17:10;22.27;;;13.97;;
10313;SDS011;5202;49.138;10.090;2022-11-30T03:19:38;24.00;;;13.97;;
10313;SDS011;5202;49.138;10.090;2022-11-30T03:22:11;22.40;;;13.83;;
10313;SDS011;5202;49.138;10.090;2022-11-30T03:24:39;21.37;;;14.00;;
10313;SDS011;5202;49.138;10.090;2022-11-30T03:27:08;21.00;;;14.40;;
10313;SDS011;5202;49.138;10.090;2022-11-30T03:29:36;22.13;;;14.53;;
10313;SDS011;5202;49.138;10.090;2022-11-30T03:32:04;22.10;;;14.30;;
10313;SDS011;5202;49.138;10.090;2022-11-30T03:34:34;24.37;;;15.17;;
10313;SDS011;5202;49.138;10.090;2022-11-30T03:37:02;25.27;;;15.30;;
10313;SDS011;5202;49.138;10.090;2022-11-30T03:39:31;22.23;;;14.13;;
10313;SDS011;5202;49.138;10.090;2022-11-30T03:41:59;22.77;;;15.20;;
10313;SDS011;5202;49.138;10.090;2022-11-30T03:44:27;24.00;;;14.63;;
10313;SDS011;5202;49.138;10.090;2022-11-30T03:46:56;23.37;;;14.67;;
10313;SDS011;5202;49.138;10.090;2022-11-30T03:49:24;24.47;;;14.97;;
10313;SDS011;5202;49.138;10.090;2022-11-30T03:51:54;23.43;;;15.23;;
10313;SDS011;5202;49.138;10.090;2022-11-30T03:54:22;23.43;;;14.87;;
10313;SDS011;5202;49.138;10.090;2022-11-30T03:56:50;21.27;;;14.17;;
10313;SDS011;5202;49.138;10.090;2022-11-30T03:59:18;24.77;;;15.77;;
10313;SDS011;5202;49.138;10.090;2022-11-30T04:01:47;24.30;;;15.00;;
10313;SDS011;5202;49.138;10.090;2022-11-30T04:04:15;24.60;;;15.30;;
10313;SDS011;5202;49.138;10.090;2022-11-30T04:06:43;26.77;;;15.93;;
10313;SDS011;5202;49.138;10.090;2022-11-30T04:09:13;27.40;;;15.77;;
10313;SDS011;5202;49.138;10.090;2022-11-30T04:11:41;24.63;;;15.83;;
10313;SDS011;5202;49.138;10.090;2022-11-30T04:14:10;23.87;;;15.53;;
10313;SDS011;5202;49.138;10.090;2022-11-30T04:16:38;24.33;;;15.30;;
10313;SDS011;5202;49.138;10.090;2022-11-30T04:19:06;23.53;;;15.20;;
10313;SDS011;5202;49.138;10.090;2022-11-30T04:21:34;25.03;;;15.30;;
10313;SDS011;5202;49.138;10.090;2022-11-30T04:24:03;24.73;;;16.17;;
10313;SDS011;5202;49.138;10.090;2022-11-30T04:26:34;21.43;;;14.80;;
10313;SDS011;5202;49.138;10.090;2022-11-30T04:29:02;21.93;;;15.47;;
10313;SDS011;5202;49.138;10.090;2022-11-30T04:31:30;24.07;;;15.93;;
10313;SDS011;5202;49.138;10.090;2022-11-30T04:33:59;25.23;;;15.23;;
10313;SDS011;5202;49.138;10.090;2022-11-30T04:36:27;23.77;;;16.10;;
10313;SDS011;5202;49.138;10.090;2022-11-30T04:38:55;25.30;;;15.37;;
10313;SDS011;5202;49.138;10.090;2022-11-30T04:41:24;24.23;;;15.97;;
10313;SDS011;5202;49.138;10.090;2022-11-30T04:43:53;23.23;;;15.03;;
10313;SDS011;5202;49.138;10.090;2022-11-30T04:46:22;20.57;;;14.53;;
10313;SDS011;5202;49.138;10.090;2022-11-30T04:48:50;27.77;;;16.80;;
10313;SDS011;5202;49.138;10.090;2022-11-30T04:51:18;26.30;;;16.43;;
10313;SDS011;5202;49.138;10.090;2022-11-30T04:53:47;26.13;;;16.00;;
10313;SDS011;5202;49.138;10.090;2022-11-30T04:56:15;25.87;;;16.23;;
10313;SDS011;5202;49.138;10.090;2022-11-30T04:58:43;32.27;;;16.93;;
10313;SDS011;5202;49.138;10.090;2022-11-30T05:01:13;25.37;;;16.37;;
10313;SDS011;5202;49.138;10.090;2022-11-30T05:06:50;25.63;;;15.90;;
10313;SDS011;5202;49.138;10.090;2022-11-30T05:09:18;25.23;;;16.30;;
10313;SDS011;5202;49.138;10.090;2022-11-30T05:11:46;25.37;;;15.47;;
10313;SDS011;5202;49.138;10.090;2022-11-30T05:14:14;27.50;;;16.73;;
10313;SDS011;5202;49.138;10.090;2022-11-30T05:16:46;23.17;;;15.40;;
10313;SDS011;5202;49.138;10.090;2022-11-30T05:19:15;25.77;;;16.83;;
10313;SDS011;5202;49.138;10.090;2022-11-30T05:21:43;25.70;;;15.83;;
10313;SDS011;5202;49.138;10.090;2022-11-30T05:24:12;23.67;;;15.37;;
10313;SDS011;5202;49.138;10.090;2022-11-30T05:26:40;24.93;;;16.03;;
10313;SDS011;5202;49.138;10.090;2022-11-30T05:29:08;31.77;;;17.13;;
10313;SDS011;5202;49.138;10.090;2022-11-30T05:31:37;26.47;;;16.57;;
10313;SDS011;5202;49.138;10.090;2022-11-30T05:34:07;27.10;;;16.80;;
10313;SDS011;5202;49.138;10.090;2022-11-30T05:36:36;27.17;;;16.30;;
10313;SDS011;5202;49.138;10.090;2022-11-30T05:39:04;27.23;;;16.97;;
10313;SDS011;5202;49.138;10.090;2022-11-30T05:41:32;24.30;;;16.00;;
10313;SDS011;5202;49.138;10.090;2022-11-30T05:44:01;25.70;;;16.03;;
10313;SDS011;5202;49.138;10.090;2022-11-30T05:46:29;23.67;;;15.37;;
10313;SDS011;5202;49.138;10.090;2022-11-30T05:49:00;23.80;;;15.83;;
10313;SDS011;5202;49.138;10.090;2022-11-30T05:51:29;26.17;;;16.33;;
10313;SDS011;5202;49.138;10.090;2022-11-30T05:53:58;30.00;;;17.57;;
10313;SDS011;5202;49.138;10.090;2022-11-30T05:56:29;24.87;;;16.67;;
10313;SDS011;5202;49.138;10.090;2022-11-30T05:58:58;27.00;;;17.33;;
10313;SDS011;5202;49.138;10.090;2022-11-30T06:01:26;29.90;;;17.87;;
10313;SDS011;5202;49.138;10.090;2022-11-30T06:03:55;29.50;;;17.27;;
10313;SDS011;5202;49.138;10.090;2022-11-30T06:06:24;29.77;;;17.53;;
10313;SDS011;5202;49.138;10.090;2022-11-30T06:08:54;28.33;;;18.17;;
10313;SDS011;5202;49.138;10.090;2022-11-30T06:11:22;27.97;;;18.40;;
10313;SDS011;5202;49.138;10.090;2022-11-30T06:13:50;31.23;;;17.83;;
10313;SDS011;5202;49.138;10.090;2022-11-30T06:16:18;27.20;;;16.93;;
10313;SDS011;5202;49.138;10.090;2022-11-30T06:18:47;26.30;;;16.73;;
10313;SDS011;5202;49.138;10.090;2022-11-30T06:21:15;25.23;;;15.63;;
10313;SDS011;5202;49.138;10.090;2022-11-30T06:23:49;28.10;;;16.47;;
10313;SDS011;5202;49.138;10.090;2022-11-30T06:26:19;24.17;;;15.77;;
10313;SDS011;5202;49.138;10.090;2022-11-30T06:28:47;27.03;;;17.10;;
10313;SDS011;5202;49.138;10.090;2022-11-30T06:31:16;24.13;;;15.17;;
10313;SDS011;5202;49.138;10.090;2022-11-30T06:33:44;25.20;;;15.90;;
10313;SDS011;5202;49.138;10.090;2022-11-30T06:36:18;26.73;;;17.73;;
10313;SDS011;5202;49.138;10.090;2022-11-30T06:38:49;25.50;;;16.10;;
10313;SDS011;5202;49.138;10.090;2022-11-30T06:41:19;26.27;;;16.53;;
10313;SDS011;5202;49.138;10.090;2022-11-30T06:43:48;27.90;;;17.57;;
10313;SDS011;5202;49.138;10.090;2022-11-30T06:46:16;29.77;;;18.63;;
10313;SDS011;5202;49.138;10.090;2022-11-30T06:48:46;28.67;;;18.37;;
10313;SDS011;5202;49.138;10.090;2022-11-30T06:51:16;30.47;;;19.80;;
10313;SDS011;5202;49.138;10.090;2022-11-30T06:53:45;31.10;;;19.60;;
10313;SDS011;5202;49.138;10.090;2022-11-30T06:56:13;28.67;;;18.50;;
10313;SDS011;5202;49.138;10.090;2022-11-30T06:58:43;27.07;;;17.53;;
10313;SDS011;5202;49.138;10.090;2022-11-30T07:04:10;35.10;;;20.77;;
10313;SDS011;5202;49.138;10.090;2022-11-30T07:06:39;28.40;;;18.77;;
10313;SDS011;5202;49.138;10.090;2022-11-30T07:09:08;34.20;;;20.80;;
10313;SDS011;5202;49.138;10.090;2022-11-30T07:11:38;33.10;;;20.97;;
10313;SDS011;5202;49.138;10.090;2022-11-30T07:14:08;29.93;;;19.30;;
10313;SDS011;5202;49.138;10.090;2022-11-30T07:16:36;25.73;;;16.53;;
10313;SDS011;5202;49.138;10.090;2022-11-30T07:19:05;29.77;;;17.53;;
10313;SDS011;5202;49.138;10.090;2022-11-30T07:21:33;27.83;;;18.43;;
10313;SDS011;5202;49.138;10.090;2022-11-30T07:24:01;29.93;;;18.20;;
10313;SDS011;5202;49.138;10.090;2022-11-30T07:26:48;30.33;;;19.17;;
10313;SDS011;5202;49.138;10.090;2022-11-30T07:29:17;28.03;;;18.10;;
10313;SDS011;5202;49.138;10.090;2022-11-30T07:31:48;33.23;;;19.83;;
10313;SDS011;5202;49.138;10.090;2022-11-30T07:34:18;30.43;;;19.60;;
10313;SDS011;5202;49.138;10.090;2022-11-30T07:36:47;33.70;;;19.97;;
10313;SDS011;5202;49.138;10.090;2022-11-30T07:39:16;32.93;;;19.30;;
10313;SDS011;5202;49.138;10.090;2022-11-30T07:41:44;27.83;;;17.90;;
10313;SDS011;5202;49.138;10.090;2022-11-30T07:44:15;28.73;;;18.30;;
10313;SDS011;5202;49.138;10.090;2022-11-30T07:46:45;31.47;;;19.43;;
10313;SDS011;5202;49.138;10.090;2022-11-30T07:49:13;33.03;;;20.57;;
10313;SDS011;5202;49.138;10.090;2022-11-30T07:51:42;30.40;;;19.00;;
10313;SDS011;5202;49.138;10.090;2022-11-30T07:54:10;32.60;;;20.10;;
10313;SDS011;5202;49.138;10.090;2022-11-30T07:56:39;32.47;;;19.13;;
10313;SDS011;5202;49.138;10.090;2022-11-30T07:59:08;31.47;;;19.40;;
10313;SDS011;5202;49.138;10.090;2022-11-30T08:01:38;36.53;;;20.80;;
10313;SDS011;5202;49.138;10.090;2022-11-30T08:04:07;38.10;;;21.97;;
10313;SDS011;5202;49.138;10.090;2022-11-30T08:06:39;33.67;;;20.23;;
10313;SDS011;5202;49.138;10.090;2022-11-30T08:09:09;38.90;;;23.90;;
10313;SDS011;5202;49.138;10.090;2022-11-30T08:11:45;36.70;;;21.23;;
10313;SDS011;5202;49.138;10.090;2022-11-30T08:14:16;39.07;;;22.27;;
10313;SDS011;5202;49.138;10.090;2022-11-30T08:16:45;60.97;;;37.30;;
10313;SDS011;5202;49.138;10.090;2022-11-30T08:19:14;49.97;;;30.83;;
10313;SDS011;5202;49.138;10.090;2022-11-30T08:21:42;45.03;;;25.10;;
10313;SDS011;5202;49.138;10.090;2022-11-30T08:24:11;45.13;;;26.47;;
10313;SDS011;5202;49.138;10.090;2022-11-30T08:26:40;42.47;;;25.83;;
10313;SDS011;5202;49.138;10.090;2022-11-30T08:29:08;37.73;;;22.10;;
10313;SDS011;5202;49.138;10.090;2022-11-30T08:31:37;37.10;;;20.97;;
10313;SDS011;5202;49.138;10.090;2022-11-30T08:34:08;37.00;;;21.07;;
10313;SDS011;5202;49.138;10.090;2022-11-30T08:36:38;33.40;;;20.17;;
10313;SDS011;5202;49.138;10.090;2022-11-30T08:39:10;36.57;;;21.20;;
10313;SDS011;5202;49.138;10.090;2022-11-30T08:41:39;39.97;;;21.47;;
10313;SDS011;5202;49.138;10.090;2022-11-30T08:44:08;38.27;;;21.30;;
10313;SDS011;5202;49.138;10.090;2022-11-30T08:46:36;40.27;;;21.47;;
10313;SDS011;5202;49.138;10.090;2022-11-30T08:49:21;49.93;;;25.00;;
10313;SDS011;5202;49.138;10.090;2022-11-30T08:51:51;43.83;;;23.60;;
10313;SDS011;5202;49.138;10.090;2022-11-30T08:54:41;42.17;;;21.33;;
10313;SDS011;5202;49.138;10.090;2022-11-30T08:57:12;50.00;;;28.77;;
10313;SDS011;5202;49.138;10.090;2022-11-30T08:59:41;43.47;;;24.33;;
10313;SDS011;5202;49.138;10.090;2022-11-30T09:02:10;37.23;;;19.57;;
10313;SDS011;5202;49.138;10.090;2022-11-30T09:04:44;39.63;;;21.37;;
10313;SDS011;5202;49.138;10.090;2022-11-30T09:07:17;38.23;;;20.37;;
10313;SDS011;5202;49.138;10.090;2022-11-30T09:09:45;37.80;;;20.43;;
10313;SDS011;5202;49.138;10.090;2022-11-30T09:12:14;42.50;;;22.30;;
10313;SDS011;5202;49.138;10.090;2022-11-30T09:14:42;47.33;;;25.57;;
10313;SDS011;5202;49.138;10.090;2022-11-30T09:17:16;47.40;;;22.03;;
10313;SDS011;5202;49.138;10.090;2022-11-30T09:19:45;41.40;;;21.03;;
10313;SDS011;5202;49.138;10.090;2022-11-30T09:22:14;37.77;;;19.97;;
10313;SDS011;5202;49.138;10.090;2022-11-30T09:24:44;40.77;;;20.97;;
10313;SDS011;5202;49.138;10.090;2022-11-30T09:27:12;35.47;;;19.47;;
10313;SDS011;5202;49.138;10.090;2022-11-30T09:29:41;37.57;;;20.17;;
10313;SDS011;5202;49.138;10.090;2022-11-30T09:32:09;45.83;;;26.03;;
10313;SDS011;5202;49.138;10.090;2022-11-30T09:34:37;46.40;;;22.83;;
10313;SDS011;5202;49.138;10.090;2022-11-30T09:37:07;43.93;;;20.10;;
10313;SDS011;5202;49.138;10.090;2022-11-30T09:39:35;42.67;;;21.00;;
10313;SDS011;5202;49.138;10.090;2022-11-30T09:42:17;45.40;;;24.47;;
10313;SDS011;5202;49.138;10.090;2022-11-30T09:45:01;39.70;;;22.63;;
10313;SDS011;5202;49.138;10.090;2022-11-30T09:50:46;70.27;;;33.90;;
10313;SDS011;5202;49.138;10.090;2022-11-30T09:53:20;65.27;;;38.07;;
10313;SDS011;5202;49.138;10.090;2022-11-30T09:55:55;35.77;;;20.90;;
10313;SDS011;5202;49.138;10.090;2022-11-30T09:58:26;29.23;;;17.20;;
10313;SDS011;5202;49.138;10.090;2022-11-30T10:01:05;46.03;;;25.67;;
10313;SDS011;5202;49.138;10.090;2022-11-30T10:03:44;36.70;;;20.53;;
10313;SDS011;5202;49.138;10.090;2022-11-30T10:06:14;28.40;;;16.13;;
10313;SDS011;5202;49.138;10.090;2022-11-30T10:08:56;30.30;;;18.80;;
10313;SDS011;5202;49.138;10.090;2022-11-30T10:11:51;22.43;;;13.23;;
10313;SDS011;5202;49.138;10.090;2022-11-30T10:14:30;21.57;;;12.10;;
10313;SDS011;5202;49.138;10.090;2022-11-30T10:17:31;25.57;;;14.83;;
10313;SDS011;5202;49.138;10.090;2022-11-30T10:20:19;20.60;;;12.97;;
10313;SDS011;5202;49.138;10.090;2022-11-30T10:23:01;21.70;;;13.53;;
10313;SDS011;5202;49.138;10.090;2022-11-30T10:25:45;19.30;;;12.00;;
10313;SDS011;5202;49.138;10.090;2022-11-30T10:28:24;18.17;;;11.43;;
10313;SDS011;5202;49.138;10.090;2022-11-30T10:31:13;16.23;;;10.40;;
10313;SDS011;5202;49.138;10.090;2022-11-30T10:33:44;15.40;;;9.90;;
10313;SDS011;5202;49.138;10.090;2022-11-30T10:36:17;16.77;;;9.43;;
10313;SDS011;5202;49.138;10.090;2022-11-30T10:38:54;13.43;;;8.63;;
10313;SDS011;5202;49.138;10.090;2022-11-30T10:41:29;14.40;;;9.07;;
10313;SDS011;5202;49.138;10.090;2022-11-30T10:44:01;17.00;;;10.70;;
10313;SDS011;5202;49.138;10.090;2022-11-30T10:46:37;14.27;;;8.73;;
10313;SDS011;5202;49.138;10.090;2022-11-30T10:49:12;14.50;;;8.23;;
10313;SDS011;5202;49.138;10.090;2022-11-30T10:51:46;10.53;;;6.70;;
10313;SDS011;5202;49.138;10.090;2022-11-30T10:54:20;9.53;;;6.20;;
10313;SDS011;5202;49.138;10.090;2022-11-30T10:56:51;12.47;;;6.23;;
10313;SDS011;5202;49.138;10.090;2022-11-30T10:59:21;9.47;;;5.93;;
10313;SDS011;5202;49.138;10.090;2022-11-30T11:01:53;10.53;;;6.30;;
10313;SDS011;5202;49.138;10.090;2022-11-30T11:04:22;9.37;;;6.07;;
10313;SDS011;5202;49.138;10.090;2022-11-30T11:06:53;11.97;;;6.93;;
10313;SDS011;5202;49.138;10.090;2022-11-30T11:12:14;11.17;;;6.87;;
10313;SDS011;5202;49.138;10.090;2022-11-30T11:14:45;12.37;;;6.97;;
10313;SDS011;5202;49.138;10.090;2022-11-30T11:17:21;12.43;;;6.73;;
10313;SDS011;5202;49.138;10.090;2022-11-30T11:19:51;9.37;;;6.30;;
10313;SDS011;5202;49.138;10.090;2022-11-30T11:22:20;12.10;;;7.43;;
10313;SDS011;5202;49.138;10.090;2022-11-30T11:24:50;17.00;;;10.60;;
10313;SDS011;5202;49.138;10.090;2022-11-30T11:27:24;15.90;;;9.90;;
10313;SDS011;5202;49.138;10.090;2022-11-30T11:30:02;19.17;;;11.70;;
10313;SDS011;5202;49.138;10.090;2022-11-30T11:32:34;15.77;;;10.23;;
10313;SDS011;5202;49.138;10.090;2022-11-30T11:35:02;17.47;;;10.27;;
10313;SDS011;5202;49.138;10.090;2022-11-30T11:37:59;14.23;;;7.93;;
10313;SDS011;5202;49.138;10.090;2022-11-30T11:40:27;15.33;;;9.23;;
10313;SDS011;5202;49.138;10.090;2022-11-30T11:42:57;14.10;;;9.13;;
10313;SDS011;5202;49.138;10.090;2022-11-30T11:45:29;17.63;;;11.73;;
10313;SDS011;5202;49.138;10.090;2022-11-30T11:48:04;13.77;;;8.70;;
10313;SDS011;5202;49.138;10.090;2022-11-30T11:50:55;15.20;;;9.47;;
10313;SDS011;5202;49.138;10.090;2022-11-30T11:53:36;20.53;;;14.80;;
10313;SDS011;5202;49.138;10.090;2022-11-30T11:56:19;17.50;;;13.30;;
10313;SDS011;5202;49.138;10.090;2022-11-30T11:58:56;15.33;;;9.90;;
10313;SDS011;5202;49.138;10.090;2022-11-30T12:01:34;40.70;;;23.33;;
10313;SDS011;5202;49.138;10.090;2022-11-30T12:04:17;26.80;;;15.33;;
10313;SDS011;5202;49.138;10.090;2022-11-30T12:07:17;15.90;;;10.03;;
10313;SDS011;5202;49.138;10.090;2022-11-30T12:09:55;16.83;;;11.43;;
10313;SDS011;5202;49.138;10.090;2022-11-30T12:12:47;16.07;;;11.17;;
10313;SDS011;5202;49.138;10.090;2022-11-30T12:15:22;19.20;;;12.83;;
10313;SDS011;5202;49.138;10.090;2022-11-30T12:18:00;15.63;;;10.60;;
10313;SDS011;5202;49.138;10.090;2022-11-30T12:20:47;12.33;;;8.70;;
10313;SDS011;5202;49.138;10.090;2022-11-30T12:23:41;12.00;;;9.40;;
10313;SDS011;5202;49.138;10.090;2022-11-30T12:26:27;12.10;;;9.10;;
10313;SDS011;5202;49.138;10.090;2022-11-30T12:29:05;15.90;;;10.17;;
10313;SDS011;5202;49.138;10.090;2022-11-30T12:34:47;27.13;;;16.43;;
10313;SDS011;5202;49.138;10.090;2022-11-30T12:37:35;26.27;;;16.67;;
10313;SDS011;5202;49.138;10.090;2022-11-30T12:40:19;21.77;;;14.23;;
10313;SDS011;5202;49.138;10.090;2022-11-30T12:43:01;21.67;;;14.47;;
10313;SDS011;5202;49.138;10.090;2022-11-30T12:45:41;21.37;;;14.37;;
10313;SDS011;5202;49.138;10.090;2022-11-30T12:48:16;27.57;;;18.03;;
10313;SDS011;5202;49.138;10.090;2022-11-30T12:51:01;22.53;;;16.03;;
10313;SDS011;5202;49.138;10.090;2022-11-30T12:53:38;27.60;;;18.93;;
10313;SDS011;5202;49.138;10.090;2022-11-30T12:56:18;22.53;;;16.07;;
10313;SDS011;5202;49.138;10.090;2022-11-30T12:59:00;31.43;;;21.80;;
10313;SDS011;5202;49.138;10.090;2022-11-30T13:01:47;28.73;;;17.73;;
10313;SDS011;5202;49.138;10.090;2022-11-30T13:04:37;26.83;;;16.93;;
10313;SDS011;5202;49.138;10.090;2022-11-30T13:07:14;25.33;;;16.63;;
10313;SDS011;5202;49.138;10.090;2022-11-30T13:09:51;26.60;;;16.07;;
10313;SDS011;5202;49.138;10.090;2022-11-30T13:12:23;25.63;;;15.77;;
10313;SDS011;5202;49.138;10.090;2022-11-30T13:15:02;26.27;;;16.50;;
10313;SDS011;5202;49.138;10.090;2022-11-30T13:17:40;28.77;;;17.23;;
10313;SDS011;5202;49.138;10.090;2022-11-30T13:20:15;27.23;;;17.20;;
10313;SDS011;5202;49.138;10.090;2022-11-30T13:22:51;25.40;;;15.50;;
10313;SDS011;5202;49.138;10.090;2022-11-30T13:25:25;23.50;;;15.90;;
10313;SDS011;5202;49.138;10.090;2022-11-30T13:28:22;25.03;;;13.63;;
10313;SDS011;5202;49.138;10.090;2022-11-30T13:31:00;20.70;;;12.20;;
10313;SDS011;5202;49.138;10.090;2022-11-30T13:33:42;22.07;;;12.67;;
10313;SDS011;5202;49.138;10.090;2022-11-30T13:36:23;20.13;;;11.37;;
10313;SDS011;5202;49.138;10.090;2022-11-30T13:45:14;21.97;;;11.60;;
10313;SDS011;5202;49.138;10.090;2022-11-30T13:47:53;18.50;;;10.60;;
10313;SDS011;5202;49.138;10.090;2022-11-30T13:50:24;14.10;;;9.83;;
10313;SDS011;5202;49.138;10.090;2022-11-30T13:53:07;17.57;;;10.10;;
10313;SDS011;5202;49.138;10.090;2022-11-30T13:56:00;17.53;;;9.77;;
10313;SDS011;5202;49.138;10.090;2022-11-30T14:17:18;13.47;;;8.17;;
10313;SDS011;5202;49.138;10.090;2022-11-30T14:19:51;13.70;;;8.30;;
10313;SDS011;5202;49.138;10.090;2022-11-30T14:22:24;12.90;;;8.00;;
10313;SDS011;5202;49.138;10.090;2022-11-30T14:24:56;14.13;;;7.87;;
10313;SDS011;5202;49.138;10.090;2022-11-30T14:27:25;16.63;;;10.23;;
10313;SDS011;5202;49.138;10.090;2022-11-30T14:29:58;16.20;;;10.10;;
10313;SDS011;5202;49.138;10.090;2022-11-30T14:32:32;14.60;;;8.40;;
10313;SDS011;5202;49.138;10.090;2022-11-30T14:35:06;13.13;;;7.53;;
10313;SDS011;5202;49.138;10.090;2022-11-30T14:37:42;15.63;;;8.83;;
10313;SDS011;5202;49.138;10.090;2022-11-30T14:40:14;20.40;;;12.23;;
10313;SDS011;5202;49.138;10.090;2022-11-30T14:42:46;20.07;;;14.23;;
10313;SDS011;5202;49.138;10.090;2022-11-30T14:45:17;23.50;;;13.83;;
10313;SDS011;5202;49.138;10.090;2022-11-30T14:47:49;24.17;;;14.40;;
10313;SDS011;5202;49.138;10.090;2022-11-30T14:50:21;21.53;;;13.33;;
10313;SDS011;5202;49.138;10.090;2022-11-30T14:52:55;22.87;;;13.63;;
10313;SDS011;5202;49.138;10.090;2022-11-30T14:55:37;25.20;;;14.30;;
10313;SDS011;5202;49.138;10.090;2022-11-30T14:58:14;35.40;;;18.50;;
10313;SDS011;5202;49.138;10.090;2022-11-30T15:00:48;58.50;;;27.63;;
10313;SDS011;5202;49.138;10.090;2022-11-30T15:03:18;43.63;;;22.67;;
10313;SDS011;5202;49.138;10.090;2022-11-30T15:05:53;37.23;;;19.87;;
10313;SDS011;5202;49.138;10.090;2022-11-30T15:08:24;27.27;;;16.80;;
10313;SDS011;5202;49.138;10.090;2022-11-30T15:11:03;57.03;;;35.23;;
10313;SDS011;5202;49.138;10.090;2022-11-30T15:13:36;34.20;;;20.73;;
10313;SDS011;5202;49.138;10.090;2022-11-30T15:16:07;34.97;;;19.20;;
10313;SDS011;5202;49.138;10.090;2022-11-30T15:18:44;28.07;;;17.67;;
10313;SDS011;5202;49.138;10.090;2022-11-30T15:21:14;22.23;;;13.47;;
10313;SDS011;5202;49.138;10.090;2022-11-30T15:23:45;20.30;;;13.37;;
10313;SDS011;5202;49.138;10.090;2022-11-30T15:26:19;23.20;;;13.43;;
10313;SDS011;5202;49.138;10.090;2022-11-30T15:28:53;19.67;;;12.43;;
10313;SDS011;5202;49.138;10.090;2022-11-30T15:31:27;16.43;;;11.23;;
10313;SDS011;5202;49.138;10.090;2022-11-30T15:34:02;15.67;;;9.47;;
10313;SDS011;5202;49.138;10.090;2022-11-30T15:36:32;22.90;;;14.20;;
10313;SDS011;5202;49.138;10.090;2022-11-30T15:39:04;25.40;;;16.27;;